createdAt,value
2018-07-08T00:01:34.382Z,71.60
2018-07-08T00:04:03.051Z,71.60
2018-07-08T00:06:31.793Z,71.80
2018-07-08T00:09:00.451Z,71.80
2018-07-08T00:11:29.091Z,71.90
2018-07-08T00:13:57.706Z,72.00
2018-07-08T00:16:26.342Z,72.40
2018-07-08T00:18:54.968Z,72.20
2018-07-08T00:21:23.661Z,72.30
2018-07-08T00:23:52.332Z,72.60
2018-07-08T00:26:20.953Z,73.00
2018-07-08T00:28:49.607Z,73.10
2018-07-08T00:31:18.218Z,73.10
2018-07-08T00:33:46.806Z,73.50
2018-07-08T00:36:15.465Z,73.50
2018-07-08T00:38:44.066Z,73.50
2018-07-08T00:41:12.881Z,73.80
2018-07-08T00:43:41.507Z,74.00
2018-07-08T00:46:10.180Z,73.90
2018-07-08T00:48:38.757Z,74.20
2018-07-08T00:51:07.414Z,74.40
2018-07-08T00:53:36.029Z,74.30
2018-07-08T00:56:04.689Z,74.40
2018-07-08T00:58:33.332Z,74.60
2018-07-08T01:01:01.995Z,74.80
2018-07-08T01:03:30.592Z,74.70
2018-07-08T01:05:59.203Z,74.80
2018-07-08T01:08:27.795Z,75.00
2018-07-08T01:10:56.435Z,75.60
2018-07-08T01:13:25.040Z,75.40
2018-07-08T01:15:53.671Z,75.40
2018-07-08T01:18:22.312Z,75.60
2018-07-08T01:20:50.957Z,76.00
2018-07-08T01:23:19.603Z,75.90
2018-07-08T01:25:59.100Z,76.20
2018-07-08T01:28:28.252Z,76.10
2018-07-08T01:30:56.945Z,76.00
2018-07-08T01:33:25.545Z,76.20
2018-07-08T01:35:54.153Z,76.50
2018-07-08T01:38:22.840Z,78.50
2018-07-08T01:40:51.499Z,79.10
2018-07-08T01:43:20.177Z,78.30
2018-07-08T01:45:48.845Z,77.70
2018-07-08T01:48:17.547Z,77.70
2018-07-08T01:50:46.217Z,77.70
2018-07-08T01:53:15.218Z,77.60
2018-07-08T01:55:43.888Z,77.60
2018-07-08T01:58:12.494Z,77.50
2018-07-08T02:00:41.767Z,77.60
2018-07-08T02:03:10.609Z,77.50
2018-07-08T02:05:39.556Z,77.60
2018-07-08T02:08:08.374Z,77.70
2018-07-08T02:10:37.389Z,77.80
2018-07-08T02:13:06.327Z,77.90
2018-07-08T02:15:35.058Z,77.80
2018-07-08T02:18:03.866Z,77.80
2018-07-08T02:20:32.698Z,79.30
2018-07-08T02:23:01.582Z,80.80
2018-07-08T02:25:30.204Z,82.20
2018-07-08T02:27:58.862Z,83.30
2018-07-08T02:30:27.504Z,84.40
2018-07-08T02:32:56.176Z,84.90
2018-07-08T02:35:24.912Z,84.80
2018-07-08T02:37:53.603Z,85.20
2018-07-08T02:40:22.260Z,85.70
2018-07-08T02:42:50.918Z,86.50
2018-07-08T02:45:19.548Z,87.30
2018-07-08T02:47:48.766Z,88.50
2018-07-08T02:50:17.597Z,88.50
2018-07-08T02:52:46.474Z,88.10
2018-07-08T02:55:15.998Z,86.90
2018-07-08T02:57:44.606Z,88.00
2018-07-08T03:00:13.724Z,88.50
2018-07-08T03:02:42.370Z,87.50
2018-07-08T03:05:11.097Z,86.20
2018-07-08T03:07:39.782Z,85.60
2018-07-08T03:10:08.475Z,84.70
2018-07-08T03:12:37.243Z,84.10
2018-07-08T03:15:05.930Z,84.20
2018-07-08T03:17:35.656Z,84.20
2018-07-08T03:20:04.323Z,83.40
2018-07-08T03:22:32.917Z,83.00
2018-07-08T03:25:01.513Z,82.80
2018-07-08T03:27:30.108Z,82.70
2018-07-08T03:29:58.687Z,82.30
2018-07-08T03:32:27.348Z,82.20
2018-07-08T03:34:55.932Z,83.50
2018-07-08T03:37:24.532Z,83.60
2018-07-08T03:39:53.192Z,82.80
2018-07-08T03:42:21.800Z,82.60
2018-07-08T03:44:50.389Z,82.60
2018-07-08T03:47:18.971Z,82.50
2018-07-08T03:49:47.548Z,82.50
2018-07-08T03:52:16.155Z,82.60
2018-07-08T03:54:44.764Z,82.60
2018-07-08T03:57:13.395Z,84.70
2018-07-08T03:59:41.966Z,84.20
2018-07-08T04:02:10.541Z,83.70
2018-07-08T04:04:39.135Z,83.50
2018-07-08T04:07:07.772Z,83.30
2018-07-08T04:09:36.373Z,83.10
2018-07-08T04:12:04.955Z,83.30
2018-07-08T04:14:33.551Z,83.00
2018-07-08T04:17:02.192Z,85.70
2018-07-08T04:19:30.798Z,86.60
2018-07-08T04:21:59.435Z,86.30
2018-07-08T04:24:28.022Z,87.70
2018-07-08T04:26:56.621Z,86.50
2018-07-08T04:29:25.251Z,88.00
2018-07-08T04:31:53.887Z,88.80
2018-07-08T04:34:22.495Z,89.70
2018-07-08T04:36:51.074Z,90.10
2018-07-08T04:39:19.681Z,90.60
2018-07-08T04:41:48.292Z,90.60
2018-07-08T04:44:16.922Z,90.30
2018-07-08T04:46:45.548Z,90.30
2018-07-08T04:49:14.142Z,89.90
2018-07-08T04:51:42.733Z,90.70
2018-07-08T04:54:11.337Z,91.00
2018-07-08T04:56:39.927Z,91.10
2018-07-08T04:59:08.518Z,91.10
2018-07-08T05:01:37.100Z,90.80
2018-07-08T05:04:05.762Z,90.90
2018-07-08T05:06:34.615Z,90.30
2018-07-08T05:09:03.342Z,90.40
2018-07-08T05:11:31.920Z,90.00
2018-07-08T05:14:00.516Z,90.20
2018-07-08T05:16:29.108Z,90.20
2018-07-08T05:18:57.701Z,90.50
2018-07-08T05:21:26.285Z,90.50
2018-07-08T05:23:55.605Z,89.90
2018-07-08T05:26:25.156Z,89.00
2018-07-08T05:28:53.912Z,89.70
2018-07-08T05:31:22.524Z,89.80
2018-07-08T05:33:51.137Z,90.50
2018-07-08T05:36:19.793Z,90.60
2018-07-08T05:38:48.380Z,90.10
2018-07-08T05:41:16.963Z,89.70
2018-07-08T05:43:45.578Z,90.10
2018-07-08T05:46:14.230Z,89.30
2018-07-08T05:48:42.844Z,89.00
2018-07-08T05:51:11.466Z,89.60
2018-07-08T05:53:40.671Z,88.60
2018-07-08T05:56:09.294Z,89.70
2018-07-08T05:58:37.920Z,90.50
2018-07-08T06:01:06.676Z,89.90
2018-07-08T06:03:35.272Z,90.10
2018-07-08T06:06:04.000Z,89.30
2018-07-08T06:08:32.600Z,90.00
2018-07-08T06:11:01.284Z,89.00
2018-07-08T06:13:29.890Z,89.20
2018-07-08T06:15:58.467Z,89.20
2018-07-08T06:18:27.060Z,89.00
2018-07-08T06:20:55.690Z,88.50
2018-07-08T06:23:24.298Z,88.00
2018-07-08T06:25:53.634Z,88.00
2018-07-08T06:28:22.258Z,87.70
2018-07-08T06:30:50.879Z,87.80
2018-07-08T06:33:19.495Z,87.90
2018-07-08T06:35:48.134Z,86.70
2018-07-08T06:38:16.737Z,85.60
2018-07-08T06:40:45.409Z,84.30
2018-07-08T06:43:14.042Z,83.90
2018-07-08T06:45:42.759Z,85.90
2018-07-08T06:48:11.439Z,85.00
2018-07-08T06:50:40.065Z,85.80
2018-07-08T06:53:08.656Z,83.00
2018-07-08T06:55:37.444Z,83.40
2018-07-08T06:58:06.166Z,83.00
2018-07-08T07:00:34.759Z,82.40
2018-07-08T07:03:03.948Z,82.30
2018-07-08T07:05:32.587Z,80.60
2018-07-08T07:08:01.217Z,81.80
2018-07-08T07:10:29.844Z,82.50
2018-07-08T07:12:58.463Z,80.90
2018-07-08T07:15:27.145Z,80.70
2018-07-08T07:17:55.770Z,81.40
2018-07-08T07:20:24.367Z,80.80
2018-07-08T07:22:53.015Z,79.80
2018-07-08T07:25:21.625Z,79.10
2018-07-08T07:27:50.195Z,78.30
2018-07-08T07:30:18.857Z,76.40
2018-07-08T07:32:47.517Z,76.50
2018-07-08T07:35:16.174Z,77.50
2018-07-08T07:37:44.794Z,77.40
2018-07-08T07:40:13.440Z,77.30
2018-07-08T07:42:42.025Z,76.60
2018-07-08T07:45:10.713Z,76.20
2018-07-08T07:47:39.369Z,73.70
2018-07-08T07:50:08.063Z,75.50
2018-07-08T07:52:36.695Z,74.80
2018-07-08T07:55:05.374Z,73.60
2018-07-08T07:57:34.197Z,72.50
2018-07-08T08:00:02.801Z,71.70
2018-07-08T08:02:31.390Z,70.80
2018-07-08T08:04:59.990Z,69.20
2018-07-08T08:07:28.762Z,69.30
2018-07-08T08:09:57.373Z,68.10
2018-07-08T08:12:25.966Z,66.10
2018-07-08T08:14:54.548Z,66.90
2018-07-08T08:17:23.153Z,67.30
2018-07-08T08:19:51.740Z,66.90
2018-07-08T08:22:20.420Z,66.80
2018-07-08T08:24:48.989Z,65.90
2018-07-08T08:27:17.572Z,66.10
2018-07-08T08:29:46.407Z,64.40
2018-07-08T08:32:14.985Z,64.10
2018-07-08T08:34:50.741Z,65.60
2018-07-08T08:37:20.848Z,64.30
2018-07-08T08:39:50.279Z,63.10
2018-07-08T08:45:10.484Z,63.20
2018-07-08T08:47:39.182Z,62.10
2018-07-08T08:50:08.726Z,60.90
2018-07-08T08:52:37.459Z,62.30
2018-07-08T08:55:06.887Z,59.40
2018-07-08T08:57:35.549Z,57.70
2018-07-08T09:00:06.433Z,57.30
2018-07-08T09:02:35.114Z,55.80
2018-07-08T09:05:03.893Z,56.40
2018-07-08T09:07:32.547Z,56.60
2018-07-08T09:10:01.209Z,54.50
2018-07-08T09:12:29.952Z,50.90
2018-07-08T09:14:58.671Z,51.50
2018-07-08T09:17:27.380Z,51.80
2018-07-08T09:19:56.057Z,52.00
2018-07-08T09:22:24.786Z,51.60
2018-07-08T09:24:53.432Z,49.30
2018-07-08T09:27:22.107Z,48.70
2018-07-08T09:29:51.011Z,47.90
2018-07-08T09:32:19.712Z,50.00
2018-07-08T09:34:48.347Z,49.30
2018-07-08T09:37:17.024Z,45.30
2018-07-08T09:39:45.703Z,47.50
2018-07-08T09:42:14.414Z,46.20
2018-07-08T09:44:43.104Z,47.30
2018-07-08T09:47:11.756Z,47.40
2018-07-08T09:49:40.438Z,48.20
2018-07-08T09:52:09.139Z,49.10
2018-07-08T09:54:37.783Z,47.40
2018-07-08T09:57:06.451Z,45.90
2018-07-08T09:59:35.096Z,47.00
2018-07-08T10:02:04.303Z,44.60
2018-07-08T10:04:33.016Z,44.40
2018-07-08T10:07:01.679Z,43.30
2018-07-08T10:09:30.338Z,46.00
2018-07-08T10:11:58.990Z,47.20
2018-07-08T10:14:27.649Z,49.20
2018-07-08T10:16:56.384Z,42.30
2018-07-08T10:19:25.139Z,41.60
2018-07-08T10:21:53.796Z,43.60
2018-07-08T10:24:22.475Z,42.60
2018-07-08T10:28:10.219Z,43.60
2018-07-08T10:30:39.691Z,46.50
2018-07-08T10:33:08.488Z,44.60
2018-07-08T10:35:53.286Z,41.80
2018-07-08T10:38:22.116Z,41.20
2018-07-08T10:40:50.785Z,41.50
2018-07-08T10:43:19.485Z,41.70
2018-07-08T10:45:48.164Z,43.20
2018-07-08T10:48:17.183Z,42.90
2018-07-08T10:50:45.933Z,43.60
2018-07-08T10:53:14.734Z,42.00
2018-07-08T10:55:43.554Z,41.80
2018-07-08T10:58:12.819Z,40.30
2018-07-08T11:00:41.555Z,41.10
2018-07-08T11:03:10.256Z,41.20
2018-07-08T11:05:38.960Z,44.40
2018-07-08T11:08:07.684Z,40.80
2018-07-08T11:10:36.408Z,43.60
2018-07-08T11:13:05.109Z,44.40
2018-07-08T11:15:34.736Z,44.90
2018-07-08T11:18:04.353Z,42.30
2018-07-08T11:20:33.105Z,42.30
2018-07-08T11:23:01.759Z,44.10
2018-07-08T11:25:30.457Z,43.80
2018-07-08T11:27:59.205Z,42.60
2018-07-08T11:30:28.470Z,40.80
2018-07-08T11:32:57.559Z,40.50
2018-07-08T11:35:26.248Z,41.70
2018-07-08T11:37:54.945Z,42.50
2018-07-08T11:40:23.622Z,40.60
2018-07-08T11:42:52.317Z,41.40
2018-07-08T11:48:11.297Z,40.80
2018-07-08T11:50:39.966Z,38.80
2018-07-08T11:53:08.728Z,40.90
2018-07-08T11:55:37.505Z,39.70
2018-07-08T11:58:06.399Z,41.20
2018-07-08T12:00:35.124Z,38.60
2018-07-08T12:03:04.153Z,39.50
2018-07-08T12:05:32.845Z,41.30
2018-07-08T12:08:01.576Z,41.60
2018-07-08T12:10:30.278Z,39.80
2018-07-08T12:12:59.493Z,40.20
2018-07-08T12:15:29.077Z,38.60
2018-07-08T12:17:57.783Z,39.40
2018-07-08T12:20:26.481Z,42.60
2018-07-08T12:22:55.171Z,43.40
2018-07-08T12:25:24.814Z,41.70
2018-07-08T12:27:53.484Z,40.60
2018-07-08T12:30:22.143Z,39.20
2018-07-08T12:32:51.655Z,44.00
2018-07-08T12:35:20.703Z,41.10
2018-07-08T12:37:49.428Z,38.30
2018-07-08T12:40:18.126Z,40.90
2018-07-08T12:42:46.877Z,42.10
2018-07-08T12:45:16.760Z,39.00
2018-07-08T12:47:47.620Z,38.90
2018-07-08T12:50:16.296Z,38.40
2018-07-08T12:52:45.091Z,35.70
2018-07-08T12:55:13.799Z,38.90
2018-07-08T12:57:42.479Z,38.00
2018-07-08T13:00:12.078Z,40.00
2018-07-08T13:02:40.776Z,37.10
2018-07-08T13:05:09.546Z,37.40
2018-07-08T13:07:38.310Z,36.70
2018-07-08T13:10:07.132Z,37.60
2018-07-08T13:12:36.352Z,38.60
2018-07-08T13:15:05.220Z,37.60
2018-07-08T13:17:33.905Z,36.60
2018-07-08T13:20:02.606Z,40.20
2018-07-08T13:24:58.680Z,39.30
2018-07-08T13:27:27.434Z,40.80
2018-07-08T13:29:56.883Z,39.70
2018-07-08T13:32:25.721Z,37.20
2018-07-08T13:34:55.062Z,37.40
2018-07-08T13:37:24.309Z,37.40
2018-07-08T13:39:53.749Z,37.50
2018-07-08T13:42:22.504Z,36.70
2018-07-08T13:44:52.301Z,39.00
2018-07-08T13:47:22.315Z,40.00
2018-07-08T13:49:52.314Z,37.60
2018-07-08T13:52:22.168Z,37.10
2018-07-08T13:54:51.039Z,37.40
2018-07-08T13:57:19.961Z,36.80
2018-07-08T13:59:49.479Z,38.30
2018-07-08T14:02:18.382Z,35.30
2018-07-08T14:04:47.478Z,37.00
2018-07-08T14:07:18.012Z,36.50
2018-07-08T14:12:15.990Z,37.30
2018-07-08T14:14:46.213Z,37.60
2018-07-08T14:17:14.989Z,37.20
2018-07-08T14:19:44.271Z,35.20
2018-07-08T14:22:13.663Z,35.20
2018-07-08T14:24:42.736Z,34.70
2018-07-08T14:27:12.198Z,35.50
2018-07-08T14:29:41.687Z,36.30
2018-07-08T14:32:11.056Z,36.00
2018-07-08T14:34:39.911Z,37.10
2018-07-08T14:37:09.220Z,36.70
2018-07-08T14:39:38.058Z,36.80
2018-07-08T14:42:07.001Z,34.30
2018-07-08T14:44:37.194Z,33.30
2018-07-08T14:47:06.728Z,35.90
2018-07-08T14:49:36.182Z,33.80
2018-07-08T14:54:34.224Z,34.00
2018-07-08T14:57:04.105Z,34.70
2018-07-08T14:59:33.571Z,35.90
2018-07-08T15:02:03.145Z,36.30
2018-07-08T15:04:32.570Z,35.10
2018-07-08T15:07:01.655Z,35.70
2018-07-08T15:09:30.451Z,37.20
2018-07-08T15:11:59.591Z,36.70
2018-07-08T15:14:29.310Z,35.50
2018-07-08T15:16:58.399Z,36.40
2018-07-08T15:19:27.755Z,36.10
2018-07-08T15:21:56.691Z,36.50
2018-07-08T15:24:25.560Z,36.70
2018-07-08T15:26:54.579Z,35.40
2018-07-08T15:29:24.420Z,37.00
2018-07-08T15:31:53.795Z,35.90
2018-07-08T15:34:24.641Z,35.90
2018-07-08T15:36:54.740Z,35.30
2018-07-08T15:39:24.414Z,33.80
2018-07-08T15:41:53.348Z,34.60
2018-07-08T15:44:22.468Z,35.50
2018-07-08T15:46:52.480Z,36.10
2018-07-08T15:49:21.952Z,35.90
2018-07-08T15:51:51.031Z,36.60
2018-07-08T15:54:21.511Z,37.50
2018-07-08T15:56:50.584Z,39.20
2018-07-08T15:59:20.240Z,40.30
2018-07-08T16:01:49.869Z,40.90
2018-07-08T16:04:18.826Z,39.20
2018-07-08T16:06:48.971Z,38.70
2018-07-08T16:09:18.024Z,37.50
2018-07-08T16:11:46.955Z,36.30
2018-07-08T16:14:16.430Z,36.60
2018-07-08T16:16:47.217Z,37.00
2018-07-08T16:19:16.180Z,36.80
2018-07-08T16:21:45.086Z,35.60
2018-07-08T16:24:14.609Z,36.00
2018-07-08T16:26:44.573Z,35.80
2018-07-08T16:29:14.551Z,35.30
2018-07-08T16:31:43.582Z,36.80
2018-07-08T16:34:12.274Z,37.20
2018-07-08T16:36:41.343Z,37.40
2018-07-08T16:39:10.135Z,37.70
2018-07-08T16:41:39.007Z,37.30
2018-07-08T16:44:08.325Z,37.20
2018-07-08T16:46:37.508Z,37.70
2018-07-08T16:49:07.020Z,38.10
2018-07-08T16:51:35.889Z,37.60
2018-07-08T16:54:05.254Z,38.70
2018-07-08T16:56:34.120Z,38.30
2018-07-08T16:59:04.435Z,38.10
2018-07-08T17:01:33.234Z,38.40
2018-07-08T17:04:01.957Z,38.30
2018-07-08T17:06:32.378Z,39.00
2018-07-08T17:09:01.270Z,38.80
2018-07-08T17:13:59.161Z,39.70
2018-07-08T17:16:28.541Z,40.10
2018-07-08T17:18:57.252Z,39.90
2018-07-08T17:21:26.283Z,40.10
2018-07-08T17:23:55.759Z,40.40
2018-07-08T17:26:25.581Z,40.40
2018-07-08T17:28:54.319Z,40.60
2018-07-08T17:31:23.597Z,40.70
2018-07-08T17:33:52.439Z,42.20
2018-07-08T17:36:21.267Z,41.10
2018-07-08T17:41:20.418Z,41.20
2018-07-08T17:43:50.399Z,42.20
2018-07-08T17:46:20.443Z,42.10
2018-07-08T17:48:50.047Z,42.20
2018-07-08T17:51:18.800Z,42.30
2018-07-08T17:53:47.608Z,43.00
2018-07-08T17:56:16.868Z,41.50
2018-07-08T17:58:45.726Z,42.60
2018-07-08T18:01:19.316Z,42.90
2018-07-08T18:03:49.479Z,43.00
2018-07-08T18:06:18.230Z,43.20
2018-07-08T18:08:49.147Z,43.40
2018-07-08T18:11:18.653Z,43.40
2018-07-08T18:13:48.467Z,44.30
2018-07-08T18:16:18.164Z,44.20
2018-07-08T18:18:47.274Z,44.80
2018-07-08T18:21:17.397Z,45.10
2018-07-08T18:23:46.536Z,45.00
2018-07-08T18:26:16.504Z,45.20
2018-07-08T18:28:45.468Z,45.30
2018-07-08T18:31:14.242Z,45.90
2018-07-08T18:33:43.720Z,45.70
2018-07-08T18:36:16.751Z,45.60
2018-07-08T18:38:46.641Z,45.50
2018-07-08T18:41:16.039Z,45.80
2018-07-08T18:43:46.377Z,46.30
2018-07-08T18:46:15.158Z,46.80
2018-07-08T18:48:44.723Z,47.00
2018-07-08T18:51:17.148Z,47.00
2018-07-08T18:53:47.758Z,47.10
2018-07-08T18:56:16.871Z,47.30
2018-07-08T18:58:48.092Z,47.30
2018-07-08T19:01:17.711Z,47.70
2018-07-08T19:03:47.252Z,47.80
2018-07-08T19:06:18.442Z,48.20
2018-07-08T19:08:51.192Z,48.20
2018-07-08T19:11:21.951Z,48.30
2018-07-08T19:13:51.723Z,48.60
2018-07-08T19:16:21.046Z,48.70
2018-07-08T19:18:52.214Z,49.40
2018-07-08T19:23:51.236Z,49.70
2018-07-08T19:26:20.092Z,49.90
2018-07-08T19:28:49.112Z,50.10
2018-07-08T19:31:18.045Z,50.30
2018-07-08T19:33:46.897Z,50.70
2018-07-08T19:36:16.405Z,50.90
2018-07-08T19:38:47.971Z,51.10
2018-07-08T19:43:50.626Z,52.10
2018-07-08T19:46:20.836Z,52.00
2018-07-08T19:48:50.341Z,52.30
2018-07-08T19:51:19.156Z,52.50
2018-07-08T19:53:49.736Z,52.70
2018-07-08T19:58:47.972Z,52.70
2018-07-08T20:01:18.006Z,53.60
2018-07-08T20:03:46.803Z,54.10
2018-07-08T20:06:15.559Z,54.20
2018-07-08T20:08:44.344Z,54.40
2018-07-08T20:11:14.096Z,54.60
2018-07-08T20:13:42.907Z,54.80
2018-07-08T20:16:14.542Z,55.20
2018-07-08T20:18:43.361Z,55.40
2018-07-08T20:21:12.245Z,55.60
2018-07-08T20:23:41.179Z,55.70
2018-07-08T20:26:10.381Z,56.10
2018-07-08T20:28:39.287Z,56.20
2018-07-08T20:31:08.722Z,56.40
2018-07-08T20:33:38.389Z,56.60
2018-07-08T20:36:08.436Z,56.70
2018-07-08T20:38:37.500Z,57.10
2018-07-08T20:41:06.895Z,57.20
2018-07-08T20:43:36.201Z,57.50
2018-07-08T20:46:05.195Z,57.70
2018-07-08T20:48:35.541Z,58.20
2018-07-08T20:51:05.322Z,58.40
2018-07-08T20:53:34.873Z,58.70
2018-07-08T20:56:05.799Z,59.10
2018-07-08T20:58:35.301Z,59.10
2018-07-08T21:01:04.585Z,59.40
2018-07-08T21:03:33.279Z,59.50
2018-07-08T21:06:02.955Z,59.70
2018-07-08T21:08:32.639Z,59.60
2018-07-08T21:11:01.388Z,60.00
2018-07-08T21:13:30.309Z,59.90
2018-07-08T21:15:59.525Z,60.00
2018-07-08T21:18:29.202Z,60.10
2018-07-08T21:20:57.994Z,60.20
2018-07-08T21:23:27.184Z,60.60
2018-07-08T21:25:57.268Z,60.70
2018-07-08T21:28:26.901Z,60.80
2018-07-08T21:30:55.691Z,60.90
2018-07-08T21:33:25.327Z,61.50
2018-07-08T21:35:54.448Z,61.80
2018-07-08T21:38:24.069Z,62.60
2018-07-08T21:40:53.194Z,62.40
2018-07-08T21:43:22.054Z,62.40
2018-07-08T21:45:51.387Z,62.80
2018-07-08T21:50:49.304Z,63.10
2018-07-08T21:53:19.173Z,63.20
2018-07-08T21:55:48.578Z,63.50
2018-07-08T21:58:18.080Z,63.50
2018-07-08T22:01:25.423Z,63.80
2018-07-08T22:03:54.323Z,64.00
2018-07-08T22:06:23.643Z,64.30
2018-07-08T22:08:54.388Z,64.30
2018-07-08T22:11:23.264Z,64.50
2018-07-08T22:13:52.430Z,64.80
2018-07-08T22:16:21.233Z,65.00
2018-07-08T22:18:50.772Z,65.40
2018-07-08T22:21:19.972Z,65.50
2018-07-08T22:23:48.764Z,65.60
2018-07-08T22:26:17.552Z,65.70
2018-07-08T22:28:46.241Z,66.00
2018-07-08T22:31:15.767Z,66.20
2018-07-08T22:33:45.121Z,66.60
2018-07-08T22:36:14.454Z,66.80
2018-07-08T22:38:43.371Z,66.80
2018-07-08T22:41:12.674Z,66.90
2018-07-08T22:43:42.288Z,66.90
2018-07-08T22:46:11.158Z,67.50
2018-07-08T22:48:40.536Z,67.60
2018-07-08T22:51:10.175Z,67.70
2018-07-08T22:53:40.245Z,68.00
2018-07-08T22:56:09.221Z,68.10
2018-07-08T22:58:38.091Z,69.10
2018-07-08T23:01:18.151Z,68.40
2018-07-08T23:03:49.459Z,68.40
2018-07-08T23:06:19.583Z,68.60
2018-07-08T23:08:49.672Z,68.70
2018-07-08T23:11:19.593Z,68.90
2018-07-08T23:13:50.732Z,68.90
2018-07-08T23:16:20.667Z,69.10
2018-07-08T23:18:50.282Z,69.10
2018-07-08T23:21:19.032Z,69.20
2018-07-08T23:23:47.863Z,69.30
2018-07-08T23:26:17.854Z,69.50
2018-07-08T23:28:47.150Z,69.50
2018-07-08T23:31:16.426Z,69.80
2018-07-08T23:33:45.968Z,70.00
2018-07-08T23:36:16.103Z,69.90
2018-07-08T23:38:46.182Z,70.00
2018-07-08T23:41:15.493Z,70.30
2018-07-08T23:43:45.551Z,70.40
2018-07-08T23:46:14.427Z,70.70
2018-07-08T23:48:43.332Z,70.90
2018-07-08T23:51:13.782Z,71.00
2018-07-08T23:53:42.535Z,71.40
2018-07-08T23:56:12.106Z,71.60
2018-07-08T23:58:41.377Z,71.50
